Clarence Center, NY (14032)

9:14 AM EST on December 08, 2016 (GMT -0500)
Strickler Road | | Change Station

Elev 669 ft 43.00 °N, 78.61 °W | Updated 8 seconds ago

Overcast
Overcast
33.6 °F
Feels Like 30 °F
N
4.3
Wind Variable Wind from WSW
Gusts 4.9 mph

Today
High -- | Low -- °F
--% Chance of Precip.
Yesterday
High -- | Low -- °F
Precip. -- in
Pressure 29.94 in
Visibility 10.0 miles
Clouds Mostly Cloudy 5000 ft
Mostly Cloudy 7000 ft
Mostly Cloudy 18000 ft
Windchill 30 °F
Dew Point 15 °F
Humidity 46%
Rainfall 0.00 in
Snow Depth Not available.
7:33 AM 4:39 PM
Waxing Gibbous, 63% visible
METAR KBUF 081354Z 27015KT 10SM BKN050 BKN070 BKN180 01/M08 A2992 RMK AO2 SLP139 T00061078
Pressure 29.94 in
Visibility 10.0 miles
Clouds Mostly Cloudy 5000 ft
Mostly Cloudy 7000 ft
Mostly Cloudy 18000 ft
Windchill 30 °F
Dew Point 15 °F
Humidity 46%
Rainfall 0.00 in
Snow Depth Not available.
7:33 AM 4:39 PM
Waxing Gibbous, 63% visible
METAR KBUF 081354Z 27015KT 10SM BKN050 BKN070 BKN180 01/M08 A2992 RMK AO2 SLP139 T00061078

10-Day Weather Forecast

Almanac

Astronomy

Dec. 08, 2016 Rise Set
Actual Time
Civil Twilight
Nautical Twilight
Astronomical Twilight
Moon
Length of Visible Light
Length of Day
Tomorrow will be .
, % of the Moon is Illuminated

Today's Extremes

State Highs State Lows

Community

WunderPhotos

Upload Photos

1,956,268 photos uploaded!

WunderBlog® & News

Nearby

Air Quality

  Air Quality AQ Index Pollutant
Not available.

Snow Depth

Station Depth Elevation

Earthquake Activity

City Distance Mag. Time & Date
Minimum magnitude displayed is 2.5.

Coastal Water Temperatures

Place Temperature

Stations

Nearby Weather Stations

Station Location Temp. Windchill Dew Point Humidity Wind Precip. Elev Updated Type
                   

Watches & Warnings

There are currently no watches in effect.